sensor_id;sensor_type;location;lat;lon;timestamp;P1;durP1;ratioP1;P2;durP2;ratioP2
20794;SDS011;28087;-33.874;151.240;2022-10-16T00:01:23;7.07;;;1.45;;
20794;SDS011;28087;-33.874;151.240;2022-10-16T00:04:02;4.30;;;1.10;;
20794;SDS011;28087;-33.874;151.240;2022-10-16T00:06:37;5.70;;;0.95;;
20794;SDS011;28087;-33.874;151.240;2022-10-16T00:09:13;5.03;;;1.02;;
20794;SDS011;28087;-33.874;151.240;2022-10-16T00:11:48;8.40;;;1.20;;
20794;SDS011;28087;-33.874;151.240;2022-10-16T00:14:25;4.28;;;1.10;;
20794;SDS011;28087;-33.874;151.240;2022-10-16T00:17:00;5.97;;;1.30;;
20794;SDS011;28087;-33.874;151.240;2022-10-16T00:19:38;7.60;;;1.25;;
20794;SDS011;28087;-33.874;151.240;2022-10-16T00:22:33;6.72;;;1.33;;
20794;SDS011;28087;-33.874;151.240;2022-10-16T00:25:08;8.40;;;1.17;;
20794;SDS011;28087;-33.874;151.240;2022-10-16T00:27:43;3.85;;;0.90;;
20794;SDS011;28087;-33.874;151.240;2022-10-16T00:30:19;5.10;;;1.27;;
20794;SDS011;28087;-33.874;151.240;2022-10-16T00:32:54;8.90;;;1.30;;
20794;SDS011;28087;-33.874;151.240;2022-10-16T00:35:31;7.90;;;1.63;;
20794;SDS011;28087;-33.874;151.240;2022-10-16T00:38:06;5.65;;;1.30;;
20794;SDS011;28087;-33.874;151.240;2022-10-16T00:40:41;6.60;;;1.08;;
20794;SDS011;28087;-33.874;151.240;2022-10-16T00:46:14;6.05;;;1.38;;
20794;SDS011;28087;-33.874;151.240;2022-10-16T00:48:51;4.55;;;1.10;;
20794;SDS011;28087;-33.874;151.240;2022-10-16T00:51:37;5.07;;;1.08;;
20794;SDS011;28087;-33.874;151.240;2022-10-16T00:54:14;5.20;;;1.15;;
20794;SDS011;28087;-33.874;151.240;2022-10-16T00:56:52;7.40;;;1.48;;
20794;SDS011;28087;-33.874;151.240;2022-10-16T00:59:30;4.35;;;1.00;;
20794;SDS011;28087;-33.874;151.240;2022-10-16T01:02:05;5.93;;;1.20;;
20794;SDS011;28087;-33.874;151.240;2022-10-16T01:04:44;5.10;;;1.25;;
20794;SDS011;28087;-33.874;151.240;2022-10-16T01:07:30;6.18;;;1.08;;
20794;SDS011;28087;-33.874;151.240;2022-10-16T01:10:16;5.30;;;1.30;;
20794;SDS011;28087;-33.874;151.240;2022-10-16T01:13:00;3.25;;;0.82;;
20794;SDS011;28087;-33.874;151.240;2022-10-16T01:15:41;7.82;;;1.20;;
20794;SDS011;28087;-33.874;151.240;2022-10-16T01:18:21;7.88;;;1.20;;
20794;SDS011;28087;-33.874;151.240;2022-10-16T01:21:03;5.35;;;1.20;;
20794;SDS011;28087;-33.874;151.240;2022-10-16T01:23:47;8.55;;;1.20;;
20794;SDS011;28087;-33.874;151.240;2022-10-16T01:26:33;7.25;;;1.20;;
20794;SDS011;28087;-33.874;151.240;2022-10-16T01:29:20;4.75;;;1.05;;
20794;SDS011;28087;-33.874;151.240;2022-10-16T01:31:59;6.25;;;1.20;;
20794;SDS011;28087;-33.874;151.240;2022-10-16T01:34:35;6.70;;;1.50;;
20794;SDS011;28087;-33.874;151.240;2022-10-16T01:37:12;4.47;;;1.08;;
20794;SDS011;28087;-33.874;151.240;2022-10-16T01:39:51;7.32;;;1.65;;
20794;SDS011;28087;-33.874;151.240;2022-10-16T01:42:31;4.72;;;1.30;;
20794;SDS011;28087;-33.874;151.240;2022-10-16T01:45:10;7.05;;;1.35;;
20794;SDS011;28087;-33.874;151.240;2022-10-16T01:47:45;5.97;;;1.20;;
20794;SDS011;28087;-33.874;151.240;2022-10-16T01:50:21;3.38;;;0.93;;
20794;SDS011;28087;-33.874;151.240;2022-10-16T01:52:57;7.05;;;1.08;;
20794;SDS011;28087;-33.874;151.240;2022-10-16T01:55:32;5.47;;;1.23;;
20794;SDS011;28087;-33.874;151.240;2022-10-16T01:58:08;6.07;;;1.20;;
20794;SDS011;28087;-33.874;151.240;2022-10-16T02:00:45;4.63;;;1.27;;
20794;SDS011;28087;-33.874;151.240;2022-10-16T02:03:20;6.32;;;1.35;;
20794;SDS011;28087;-33.874;151.240;2022-10-16T02:05:55;4.88;;;1.35;;
20794;SDS011;28087;-33.874;151.240;2022-10-16T02:08:31;5.53;;;1.20;;
20794;SDS011;28087;-33.874;151.240;2022-10-16T02:11:06;4.63;;;1.27;;
20794;SDS011;28087;-33.874;151.240;2022-10-16T02:13:44;4.90;;;1.35;;
20794;SDS011;28087;-33.874;151.240;2022-10-16T02:16:26;5.22;;;1.20;;
20794;SDS011;28087;-33.874;151.240;2022-10-16T02:19:30;8.25;;;1.45;;
20794;SDS011;28087;-33.874;151.240;2022-10-16T02:22:05;4.95;;;1.25;;
20794;SDS011;28087;-33.874;151.240;2022-10-16T02:24:42;7.13;;;1.25;;
20794;SDS011;28087;-33.874;151.240;2022-10-16T02:27:25;6.35;;;1.60;;
20794;SDS011;28087;-33.874;151.240;2022-10-16T02:30:03;8.68;;;2.00;;
20794;SDS011;28087;-33.874;151.240;2022-10-16T02:32:42;5.38;;;1.30;;
20794;SDS011;28087;-33.874;151.240;2022-10-16T02:35:16;7.20;;;1.58;;
20794;SDS011;28087;-33.874;151.240;2022-10-16T02:37:52;16.38;;;9.25;;
20794;SDS011;28087;-33.874;151.240;2022-10-16T02:40:29;5.00;;;1.42;;
20794;SDS011;28087;-33.874;151.240;2022-10-16T02:43:06;6.00;;;2.15;;
20794;SDS011;28087;-33.874;151.240;2022-10-16T02:45:40;4.97;;;1.40;;
20794;SDS011;28087;-33.874;151.240;2022-10-16T02:48:17;6.05;;;2.20;;
20794;SDS011;28087;-33.874;151.240;2022-10-16T02:50:52;6.78;;;1.98;;
20794;SDS011;28087;-33.874;151.240;2022-10-16T02:53:27;8.15;;;1.38;;
20794;SDS011;28087;-33.874;151.240;2022-10-16T02:56:02;4.50;;;1.13;;
20794;SDS011;28087;-33.874;151.240;2022-10-16T02:58:36;7.80;;;1.42;;
20794;SDS011;28087;-33.874;151.240;2022-10-16T03:01:11;5.45;;;1.20;;
20794;SDS011;28087;-33.874;151.240;2022-10-16T03:03:49;5.50;;;1.20;;
20794;SDS011;28087;-33.874;151.240;2022-10-16T03:06:24;6.32;;;2.25;;
20794;SDS011;28087;-33.874;151.240;2022-10-16T03:08:59;7.45;;;2.83;;
20794;SDS011;28087;-33.874;151.240;2022-10-16T03:11:35;7.63;;;1.70;;
20794;SDS011;28087;-33.874;151.240;2022-10-16T03:14:11;7.45;;;3.22;;
20794;SDS011;28087;-33.874;151.240;2022-10-16T03:16:46;6.10;;;1.58;;
20794;SDS011;28087;-33.874;151.240;2022-10-16T03:19:24;7.00;;;1.55;;
20794;SDS011;28087;-33.874;151.240;2022-10-16T03:21:59;7.30;;;1.25;;
20794;SDS011;28087;-33.874;151.240;2022-10-16T03:24:34;4.50;;;1.30;;
20794;SDS011;28087;-33.874;151.240;2022-10-16T03:27:11;4.93;;;1.10;;
20794;SDS011;28087;-33.874;151.240;2022-10-16T03:29:46;6.10;;;1.25;;
20794;SDS011;28087;-33.874;151.240;2022-10-16T03:32:22;6.03;;;1.20;;
20794;SDS011;28087;-33.874;151.240;2022-10-16T03:35:01;5.43;;;1.17;;
20794;SDS011;28087;-33.874;151.240;2022-10-16T03:37:36;7.13;;;1.10;;
20794;SDS011;28087;-33.874;151.240;2022-10-16T03:40:11;4.50;;;1.00;;
20794;SDS011;28087;-33.874;151.240;2022-10-16T03:42:47;5.90;;;1.10;;
20794;SDS011;28087;-33.874;151.240;2022-10-16T03:45:23;6.35;;;1.30;;
20794;SDS011;28087;-33.874;151.240;2022-10-16T03:47:58;4.82;;;1.13;;
20794;SDS011;28087;-33.874;151.240;2022-10-16T03:50:35;6.15;;;1.30;;
20794;SDS011;28087;-33.874;151.240;2022-10-16T03:53:10;4.68;;;1.10;;
20794;SDS011;28087;-33.874;151.240;2022-10-16T03:55:46;7.72;;;1.25;;
20794;SDS011;28087;-33.874;151.240;2022-10-16T03:58:23;6.05;;;1.10;;
20794;SDS011;28087;-33.874;151.240;2022-10-16T04:00:59;6.43;;;1.23;;
20794;SDS011;28087;-33.874;151.240;2022-10-16T04:03:34;4.20;;;1.10;;
20794;SDS011;28087;-33.874;151.240;2022-10-16T04:06:12;5.53;;;1.30;;
20794;SDS011;28087;-33.874;151.240;2022-10-16T04:08:47;6.60;;;1.45;;
20794;SDS011;28087;-33.874;151.240;2022-10-16T04:11:22;6.53;;;1.35;;
20794;SDS011;28087;-33.874;151.240;2022-10-16T04:13:57;8.18;;;1.30;;
20794;SDS011;28087;-33.874;151.240;2022-10-16T04:16:33;5.55;;;1.00;;
20794;SDS011;28087;-33.874;151.240;2022-10-16T04:19:09;4.78;;;1.20;;
20794;SDS011;28087;-33.874;151.240;2022-10-16T04:21:47;6.38;;;1.10;;
20794;SDS011;28087;-33.874;151.240;2022-10-16T04:24:22;6.38;;;1.20;;
20794;SDS011;28087;-33.874;151.240;2022-10-16T04:27:00;4.07;;;1.20;;
20794;SDS011;28087;-33.874;151.240;2022-10-16T04:29:34;3.92;;;1.00;;
20794;SDS011;28087;-33.874;151.240;2022-10-16T04:32:09;4.95;;;1.25;;
20794;SDS011;28087;-33.874;151.240;2022-10-16T04:34:44;3.78;;;0.98;;
20794;SDS011;28087;-33.874;151.240;2022-10-16T04:37:22;5.88;;;1.17;;
20794;SDS011;28087;-33.874;151.240;2022-10-16T04:39:58;7.50;;;1.42;;
20794;SDS011;28087;-33.874;151.240;2022-10-16T04:42:33;4.45;;;1.05;;
20794;SDS011;28087;-33.874;151.240;2022-10-16T04:45:10;6.85;;;1.38;;
20794;SDS011;28087;-33.874;151.240;2022-10-16T04:47:46;6.43;;;1.13;;
20794;SDS011;28087;-33.874;151.240;2022-10-16T04:50:20;7.43;;;1.42;;
20794;SDS011;28087;-33.874;151.240;2022-10-16T04:53:08;9.27;;;1.30;;
20794;SDS011;28087;-33.874;151.240;2022-10-16T04:55:45;5.90;;;1.20;;
20794;SDS011;28087;-33.874;151.240;2022-10-16T04:58:19;5.05;;;1.20;;
20794;SDS011;28087;-33.874;151.240;2022-10-16T05:01:13;6.50;;;1.30;;
20794;SDS011;28087;-33.874;151.240;2022-10-16T05:03:47;7.15;;;1.20;;
20794;SDS011;28087;-33.874;151.240;2022-10-16T05:06:22;4.82;;;1.10;;
20794;SDS011;28087;-33.874;151.240;2022-10-16T05:08:58;3.97;;;0.95;;
20794;SDS011;28087;-33.874;151.240;2022-10-16T05:11:33;7.20;;;1.48;;
20794;SDS011;28087;-33.874;151.240;2022-10-16T05:14:07;7.18;;;1.48;;
20794;SDS011;28087;-33.874;151.240;2022-10-16T05:16:42;4.65;;;1.00;;
20794;SDS011;28087;-33.874;151.240;2022-10-16T05:19:18;6.00;;;1.00;;
20794;SDS011;28087;-33.874;151.240;2022-10-16T05:21:57;6.85;;;1.23;;
20794;SDS011;28087;-33.874;151.240;2022-10-16T05:24:34;7.05;;;1.85;;
20794;SDS011;28087;-33.874;151.240;2022-10-16T05:27:10;6.13;;;1.70;;
20794;SDS011;28087;-33.874;151.240;2022-10-16T05:29:49;4.82;;;1.40;;
20794;SDS011;28087;-33.874;151.240;2022-10-16T05:32:26;4.35;;;1.10;;
20794;SDS011;28087;-33.874;151.240;2022-10-16T05:35:00;4.18;;;1.10;;
20794;SDS011;28087;-33.874;151.240;2022-10-16T05:37:39;6.63;;;1.33;;
20794;SDS011;28087;-33.874;151.240;2022-10-16T05:40:16;6.10;;;1.30;;
20794;SDS011;28087;-33.874;151.240;2022-10-16T05:42:50;8.35;;;1.40;;
20794;SDS011;28087;-33.874;151.240;2022-10-16T05:45:29;5.38;;;1.08;;
20794;SDS011;28087;-33.874;151.240;2022-10-16T05:48:04;5.72;;;1.20;;
20794;SDS011;28087;-33.874;151.240;2022-10-16T05:50:40;6.45;;;1.38;;
20794;SDS011;28087;-33.874;151.240;2022-10-16T05:53:14;6.78;;;1.20;;
20794;SDS011;28087;-33.874;151.240;2022-10-16T05:55:53;5.65;;;1.20;;
20794;SDS011;28087;-33.874;151.240;2022-10-16T05:58:28;5.45;;;1.30;;
20794;SDS011;28087;-33.874;151.240;2022-10-16T06:01:05;4.85;;;1.33;;
20794;SDS011;28087;-33.874;151.240;2022-10-16T06:03:40;4.70;;;1.10;;
20794;SDS011;28087;-33.874;151.240;2022-10-16T06:06:17;4.78;;;1.15;;
20794;SDS011;28087;-33.874;151.240;2022-10-16T06:08:54;4.47;;;1.10;;
20794;SDS011;28087;-33.874;151.240;2022-10-16T06:11:32;7.28;;;1.30;;
20794;SDS011;28087;-33.874;151.240;2022-10-16T06:14:08;5.45;;;1.30;;
20794;SDS011;28087;-33.874;151.240;2022-10-16T06:16:42;6.00;;;1.10;;
20794;SDS011;28087;-33.874;151.240;2022-10-16T06:19:17;5.85;;;1.30;;
20794;SDS011;28087;-33.874;151.240;2022-10-16T06:21:51;6.72;;;1.20;;
20794;SDS011;28087;-33.874;151.240;2022-10-16T06:24:25;5.47;;;0.90;;
20794;SDS011;28087;-33.874;151.240;2022-10-16T06:27:07;5.05;;;1.27;;
20794;SDS011;28087;-33.874;151.240;2022-10-16T06:29:42;7.07;;;1.30;;
20794;SDS011;28087;-33.874;151.240;2022-10-16T06:32:17;5.03;;;1.40;;
20794;SDS011;28087;-33.874;151.240;2022-10-16T06:34:52;5.63;;;1.20;;
20794;SDS011;28087;-33.874;151.240;2022-10-16T06:37:27;6.30;;;0.98;;
20794;SDS011;28087;-33.874;151.240;2022-10-16T06:40:01;6.43;;;1.30;;
20794;SDS011;28087;-33.874;151.240;2022-10-16T06:42:38;6.65;;;1.30;;
20794;SDS011;28087;-33.874;151.240;2022-10-16T06:45:17;5.45;;;1.30;;
20794;SDS011;28087;-33.874;151.240;2022-10-16T06:47:51;6.88;;;1.42;;
20794;SDS011;28087;-33.874;151.240;2022-10-16T06:50:25;6.40;;;1.40;;
20794;SDS011;28087;-33.874;151.240;2022-10-16T06:52:59;6.82;;;1.35;;
20794;SDS011;28087;-33.874;151.240;2022-10-16T06:55:34;5.38;;;1.10;;
20794;SDS011;28087;-33.874;151.240;2022-10-16T06:58:10;5.85;;;1.25;;
20794;SDS011;28087;-33.874;151.240;2022-10-16T07:00:47;7.22;;;1.60;;
20794;SDS011;28087;-33.874;151.240;2022-10-16T07:03:23;8.23;;;1.23;;
20794;SDS011;28087;-33.874;151.240;2022-10-16T07:06:00;7.13;;;1.35;;
20794;SDS011;28087;-33.874;151.240;2022-10-16T07:08:35;8.00;;;1.30;;
20794;SDS011;28087;-33.874;151.240;2022-10-16T07:11:10;5.28;;;1.60;;
20794;SDS011;28087;-33.874;151.240;2022-10-16T07:13:47;8.80;;;1.90;;
20794;SDS011;28087;-33.874;151.240;2022-10-16T07:16:25;5.30;;;1.77;;
20794;SDS011;28087;-33.874;151.240;2022-10-16T07:19:00;7.65;;;2.55;;
20794;SDS011;28087;-33.874;151.240;2022-10-16T07:21:35;7.30;;;2.53;;
20794;SDS011;28087;-33.874;151.240;2022-10-16T07:24:11;7.20;;;1.90;;
20794;SDS011;28087;-33.874;151.240;2022-10-16T07:26:47;7.65;;;1.63;;
20794;SDS011;28087;-33.874;151.240;2022-10-16T07:29:23;7.65;;;1.50;;
20794;SDS011;28087;-33.874;151.240;2022-10-16T07:31:58;6.63;;;1.50;;
20794;SDS011;28087;-33.874;151.240;2022-10-16T07:34:32;5.78;;;1.73;;
20794;SDS011;28087;-33.874;151.240;2022-10-16T07:37:08;6.78;;;1.70;;
20794;SDS011;28087;-33.874;151.240;2022-10-16T07:39:44;7.43;;;1.70;;
20794;SDS011;28087;-33.874;151.240;2022-10-16T07:42:21;7.68;;;1.40;;
20794;SDS011;28087;-33.874;151.240;2022-10-16T07:44:57;7.88;;;1.48;;
20794;SDS011;28087;-33.874;151.240;2022-10-16T07:47:32;6.50;;;1.50;;
20794;SDS011;28087;-33.874;151.240;2022-10-16T07:50:06;8.00;;;1.98;;
20794;SDS011;28087;-33.874;151.240;2022-10-16T07:52:40;8.40;;;1.85;;
20794;SDS011;28087;-33.874;151.240;2022-10-16T07:55:15;6.15;;;1.52;;
20794;SDS011;28087;-33.874;151.240;2022-10-16T07:57:50;6.78;;;1.50;;
20794;SDS011;28087;-33.874;151.240;2022-10-16T08:00:27;7.68;;;1.65;;
20794;SDS011;28087;-33.874;151.240;2022-10-16T08:03:01;5.88;;;1.58;;
20794;SDS011;28087;-33.874;151.240;2022-10-16T08:05:58;8.15;;;1.80;;
20794;SDS011;28087;-33.874;151.240;2022-10-16T08:08:32;6.80;;;1.73;;
20794;SDS011;28087;-33.874;151.240;2022-10-16T08:11:07;7.25;;;1.67;;
20794;SDS011;28087;-33.874;151.240;2022-10-16T08:13:42;5.60;;;1.63;;
20794;SDS011;28087;-33.874;151.240;2022-10-16T08:16:19;7.93;;;1.65;;
20794;SDS011;28087;-33.874;151.240;2022-10-16T08:18:54;10.10;;;1.70;;
20794;SDS011;28087;-33.874;151.240;2022-10-16T08:21:30;9.27;;;1.90;;
20794;SDS011;28087;-33.874;151.240;2022-10-16T08:24:07;10.60;;;2.17;;
20794;SDS011;28087;-33.874;151.240;2022-10-16T08:26:43;7.70;;;1.95;;
20794;SDS011;28087;-33.874;151.240;2022-10-16T08:29:23;8.30;;;1.98;;
20794;SDS011;28087;-33.874;151.240;2022-10-16T08:31:59;5.72;;;1.50;;
20794;SDS011;28087;-33.874;151.240;2022-10-16T08:34:34;6.45;;;1.77;;
20794;SDS011;28087;-33.874;151.240;2022-10-16T08:37:11;6.82;;;1.65;;
20794;SDS011;28087;-33.874;151.240;2022-10-16T08:39:46;6.80;;;1.95;;
20794;SDS011;28087;-33.874;151.240;2022-10-16T08:42:36;5.22;;;1.60;;
20794;SDS011;28087;-33.874;151.240;2022-10-16T08:45:22;6.78;;;1.70;;
20794;SDS011;28087;-33.874;151.240;2022-10-16T08:48:04;6.50;;;1.77;;
20794;SDS011;28087;-33.874;151.240;2022-10-16T08:50:42;7.57;;;2.50;;
20794;SDS011;28087;-33.874;151.240;2022-10-16T08:53:17;5.97;;;1.85;;
20794;SDS011;28087;-33.874;151.240;2022-10-16T08:55:57;7.60;;;1.90;;
20794;SDS011;28087;-33.874;151.240;2022-10-16T08:58:34;6.00;;;1.40;;
20794;SDS011;28087;-33.874;151.240;2022-10-16T09:01:12;14.32;;;1.95;;
20794;SDS011;28087;-33.874;151.240;2022-10-16T09:03:55;7.55;;;1.60;;
20794;SDS011;28087;-33.874;151.240;2022-10-16T09:06:47;7.38;;;1.65;;
20794;SDS011;28087;-33.874;151.240;2022-10-16T09:09:30;6.50;;;1.33;;
20794;SDS011;28087;-33.874;151.240;2022-10-16T09:12:17;5.78;;;1.30;;
20794;SDS011;28087;-33.874;151.240;2022-10-16T09:15:00;6.47;;;1.52;;
20794;SDS011;28087;-33.874;151.240;2022-10-16T09:17:40;7.72;;;1.60;;
20794;SDS011;28087;-33.874;151.240;2022-10-16T09:20:22;8.02;;;1.33;;
20794;SDS011;28087;-33.874;151.240;2022-10-16T09:23:14;6.68;;;1.42;;
20794;SDS011;28087;-33.874;151.240;2022-10-16T09:25:49;6.95;;;1.33;;
20794;SDS011;28087;-33.874;151.240;2022-10-16T09:28:24;4.72;;;1.30;;
20794;SDS011;28087;-33.874;151.240;2022-10-16T09:30:59;7.18;;;1.40;;
20794;SDS011;28087;-33.874;151.240;2022-10-16T09:33:33;5.25;;;1.13;;
20794;SDS011;28087;-33.874;151.240;2022-10-16T09:36:11;5.13;;;1.00;;
20794;SDS011;28087;-33.874;151.240;2022-10-16T09:38:46;6.07;;;1.80;;
20794;SDS011;28087;-33.874;151.240;2022-10-16T09:41:21;5.35;;;1.20;;
20794;SDS011;28087;-33.874;151.240;2022-10-16T09:43:59;5.80;;;1.30;;
20794;SDS011;28087;-33.874;151.240;2022-10-16T09:46:34;6.55;;;1.40;;
20794;SDS011;28087;-33.874;151.240;2022-10-16T09:49:19;4.85;;;1.23;;
20794;SDS011;28087;-33.874;151.240;2022-10-16T09:52:04;8.48;;;1.63;;
20794;SDS011;28087;-33.874;151.240;2022-10-16T09:54:48;5.90;;;1.50;;
20794;SDS011;28087;-33.874;151.240;2022-10-16T09:57:23;5.22;;;1.20;;
20794;SDS011;28087;-33.874;151.240;2022-10-16T10:00:08;6.45;;;1.30;;
20794;SDS011;28087;-33.874;151.240;2022-10-16T10:02:43;3.63;;;1.30;;
20794;SDS011;28087;-33.874;151.240;2022-10-16T10:05:18;9.40;;;1.55;;
20794;SDS011;28087;-33.874;151.240;2022-10-16T10:07:57;5.93;;;1.42;;
20794;SDS011;28087;-33.874;151.240;2022-10-16T10:10:36;7.28;;;1.63;;
20794;SDS011;28087;-33.874;151.240;2022-10-16T10:13:17;6.15;;;1.30;;
20794;SDS011;28087;-33.874;151.240;2022-10-16T10:15:51;6.65;;;1.48;;
20794;SDS011;28087;-33.874;151.240;2022-10-16T10:18:29;5.32;;;1.30;;
20794;SDS011;28087;-33.874;151.240;2022-10-16T10:21:03;8.02;;;1.58;;
20794;SDS011;28087;-33.874;151.240;2022-10-16T10:23:39;6.15;;;1.52;;
20794;SDS011;28087;-33.874;151.240;2022-10-16T10:26:14;6.05;;;1.48;;
20794;SDS011;28087;-33.874;151.240;2022-10-16T10:28:53;7.28;;;1.30;;
20794;SDS011;28087;-33.874;151.240;2022-10-16T10:31:31;6.15;;;1.42;;
20794;SDS011;28087;-33.874;151.240;2022-10-16T10:34:14;4.97;;;1.45;;
20794;SDS011;28087;-33.874;151.240;2022-10-16T10:36:54;7.65;;;1.50;;
20794;SDS011;28087;-33.874;151.240;2022-10-16T10:39:32;5.55;;;1.85;;
20794;SDS011;28087;-33.874;151.240;2022-10-16T10:42:13;6.50;;;1.55;;
20794;SDS011;28087;-33.874;151.240;2022-10-16T10:44:55;9.05;;;1.65;;
20794;SDS011;28087;-33.874;151.240;2022-10-16T10:47:34;6.05;;;1.45;;
20794;SDS011;28087;-33.874;151.240;2022-10-16T10:50:14;7.75;;;1.30;;
20794;SDS011;28087;-33.874;151.240;2022-10-16T10:52:53;9.50;;;1.63;;
20794;SDS011;28087;-33.874;151.240;2022-10-16T10:55:36;8.55;;;1.73;;
20794;SDS011;28087;-33.874;151.240;2022-10-16T10:58:24;9.35;;;1.77;;
20794;SDS011;28087;-33.874;151.240;2022-10-16T11:01:05;7.93;;;1.65;;
20794;SDS011;28087;-33.874;151.240;2022-10-16T11:03:45;8.00;;;2.05;;
20794;SDS011;28087;-33.874;151.240;2022-10-16T11:06:26;7.95;;;1.90;;
20794;SDS011;28087;-33.874;151.240;2022-10-16T11:09:07;9.98;;;1.80;;
20794;SDS011;28087;-33.874;151.240;2022-10-16T11:11:47;10.75;;;1.70;;
20794;SDS011;28087;-33.874;151.240;2022-10-16T11:14:25;9.90;;;1.98;;
20794;SDS011;28087;-33.874;151.240;2022-10-16T11:17:01;10.43;;;1.90;;
20794;SDS011;28087;-33.874;151.240;2022-10-16T11:19:37;11.18;;;2.00;;
20794;SDS011;28087;-33.874;151.240;2022-10-16T11:22:15;10.30;;;1.90;;
20794;SDS011;28087;-33.874;151.240;2022-10-16T11:24:51;7.85;;;1.75;;
20794;SDS011;28087;-33.874;151.240;2022-10-16T11:27:33;12.27;;;1.88;;
20794;SDS011;28087;-33.874;151.240;2022-10-16T11:30:12;13.25;;;2.00;;
20794;SDS011;28087;-33.874;151.240;2022-10-16T11:33:00;10.07;;;1.70;;
20794;SDS011;28087;-33.874;151.240;2022-10-16T11:35:38;9.05;;;1.80;;
20794;SDS011;28087;-33.874;151.240;2022-10-16T11:38:17;8.93;;;1.83;;
20794;SDS011;28087;-33.874;151.240;2022-10-16T11:40:58;8.23;;;1.55;;
20794;SDS011;28087;-33.874;151.240;2022-10-16T11:46:12;7.40;;;1.55;;
20794;SDS011;28087;-33.874;151.240;2022-10-16T11:48:48;8.90;;;1.63;;
20794;SDS011;28087;-33.874;151.240;2022-10-16T11:51:25;6.97;;;1.50;;
20794;SDS011;28087;-33.874;151.240;2022-10-16T11:54:10;8.23;;;1.40;;
20794;SDS011;28087;-33.874;151.240;2022-10-16T11:56:50;8.20;;;2.10;;
20794;SDS011;28087;-33.874;151.240;2022-10-16T11:59:29;7.55;;;1.83;;
20794;SDS011;28087;-33.874;151.240;2022-10-16T12:02:13;9.55;;;1.65;;
20794;SDS011;28087;-33.874;151.240;2022-10-16T12:04:50;7.53;;;1.55;;
20794;SDS011;28087;-33.874;151.240;2022-10-16T12:07:32;13.38;;;1.92;;
20794;SDS011;28087;-33.874;151.240;2022-10-16T12:10:27;11.07;;;2.00;;
20794;SDS011;28087;-33.874;151.240;2022-10-16T12:13:03;8.43;;;1.65;;
20794;SDS011;28087;-33.874;151.240;2022-10-16T12:15:37;9.88;;;2.00;;
20794;SDS011;28087;-33.874;151.240;2022-10-16T12:18:29;10.43;;;2.10;;
20794;SDS011;28087;-33.874;151.240;2022-10-16T12:21:06;11.48;;;1.85;;
20794;SDS011;28087;-33.874;151.240;2022-10-16T12:23:46;11.30;;;1.83;;
20794;SDS011;28087;-33.874;151.240;2022-10-16T12:26:25;9.30;;;1.70;;
20794;SDS011;28087;-33.874;151.240;2022-10-16T12:29:09;9.77;;;1.80;;
20794;SDS011;28087;-33.874;151.240;2022-10-16T12:31:45;9.70;;;2.00;;
20794;SDS011;28087;-33.874;151.240;2022-10-16T12:34:29;10.63;;;2.10;;
20794;SDS011;28087;-33.874;151.240;2022-10-16T12:37:11;9.38;;;1.95;;
20794;SDS011;28087;-33.874;151.240;2022-10-16T12:39:45;9.77;;;1.80;;
20794;SDS011;28087;-33.874;151.240;2022-10-16T12:42:22;13.00;;;2.00;;
20794;SDS011;28087;-33.874;151.240;2022-10-16T12:44:58;9.45;;;1.73;;
20794;SDS011;28087;-33.874;151.240;2022-10-16T12:47:46;12.13;;;2.25;;
20794;SDS011;28087;-33.874;151.240;2022-10-16T12:50:27;12.75;;;2.40;;
20794;SDS011;28087;-33.874;151.240;2022-10-16T12:53:04;17.33;;;2.47;;
20794;SDS011;28087;-33.874;151.240;2022-10-16T12:55:42;12.75;;;2.40;;
20794;SDS011;28087;-33.874;151.240;2022-10-16T12:58:21;9.85;;;2.15;;
20794;SDS011;28087;-33.874;151.240;2022-10-16T13:01:02;11.55;;;2.30;;
20794;SDS011;28087;-33.874;151.240;2022-10-16T13:03:47;12.90;;;2.40;;
20794;SDS011;28087;-33.874;151.240;2022-10-16T13:06:30;14.95;;;2.40;;
20794;SDS011;28087;-33.874;151.240;2022-10-16T13:09:13;10.27;;;2.10;;
20794;SDS011;28087;-33.874;151.240;2022-10-16T13:11:59;11.82;;;2.15;;
20794;SDS011;28087;-33.874;151.240;2022-10-16T13:17:37;11.55;;;2.15;;
20794;SDS011;28087;-33.874;151.240;2022-10-16T13:20:20;12.63;;;1.95;;
20794;SDS011;28087;-33.874;151.240;2022-10-16T13:23:06;11.40;;;1.90;;
20794;SDS011;28087;-33.874;151.240;2022-10-16T13:25:53;9.45;;;1.75;;
20794;SDS011;28087;-33.874;151.240;2022-10-16T13:28:37;9.98;;;1.88;;
20794;SDS011;28087;-33.874;151.240;2022-10-16T13:31:14;10.32;;;1.80;;
20794;SDS011;28087;-33.874;151.240;2022-10-16T13:33:53;10.00;;;1.73;;
20794;SDS011;28087;-33.874;151.240;2022-10-16T13:36:34;10.52;;;1.80;;
20794;SDS011;28087;-33.874;151.240;2022-10-16T13:39:22;9.52;;;1.80;;
20794;SDS011;28087;-33.874;151.240;2022-10-16T13:42:00;11.50;;;2.10;;
20794;SDS011;28087;-33.874;151.240;2022-10-16T13:44:39;13.18;;;2.22;;
20794;SDS011;28087;-33.874;151.240;2022-10-16T13:47:16;10.40;;;2.05;;
20794;SDS011;28087;-33.874;151.240;2022-10-16T13:50:00;10.88;;;1.98;;
20794;SDS011;28087;-33.874;151.240;2022-10-16T13:52:36;11.75;;;2.17;;
20794;SDS011;28087;-33.874;151.240;2022-10-16T13:55:14;13.65;;;2.55;;
20794;SDS011;28087;-33.874;151.240;2022-10-16T13:57:50;13.50;;;2.20;;
20794;SDS011;28087;-33.874;151.240;2022-10-16T14:00:26;10.70;;;2.45;;
20794;SDS011;28087;-33.874;151.240;2022-10-16T14:03:04;13.85;;;2.10;;
20794;SDS011;28087;-33.874;151.240;2022-10-16T14:05:46;19.00;;;2.50;;
20794;SDS011;28087;-33.874;151.240;2022-10-16T14:08:23;13.93;;;2.45;;
20794;SDS011;28087;-33.874;151.240;2022-10-16T14:11:02;11.70;;;2.45;;
20794;SDS011;28087;-33.874;151.240;2022-10-16T14:13:55;13.10;;;2.20;;
20794;SDS011;28087;-33.874;151.240;2022-10-16T14:16:31;15.07;;;2.60;;
20794;SDS011;28087;-33.874;151.240;2022-10-16T14:19:12;12.85;;;2.30;;
20794;SDS011;28087;-33.874;151.240;2022-10-16T14:21:53;14.43;;;2.58;;
20794;SDS011;28087;-33.874;151.240;2022-10-16T14:24:31;10.68;;;2.00;;
20794;SDS011;28087;-33.874;151.240;2022-10-16T14:30:12;10.00;;;2.20;;
20794;SDS011;28087;-33.874;151.240;2022-10-16T14:32:55;13.52;;;2.08;;
20794;SDS011;28087;-33.874;151.240;2022-10-16T14:35:30;9.00;;;2.00;;
20794;SDS011;28087;-33.874;151.240;2022-10-16T14:38:17;10.65;;;2.10;;
20794;SDS011;28087;-33.874;151.240;2022-10-16T14:40:53;18.65;;;2.35;;
20794;SDS011;28087;-33.874;151.240;2022-10-16T14:43:34;11.88;;;2.47;;
20794;SDS011;28087;-33.874;151.240;2022-10-16T14:46:09;15.95;;;2.10;;
20794;SDS011;28087;-33.874;151.240;2022-10-16T14:48:46;11.05;;;1.90;;
20794;SDS011;28087;-33.874;151.240;2022-10-16T14:51:21;18.17;;;2.70;;
20794;SDS011;28087;-33.874;151.240;2022-10-16T14:53:55;16.40;;;2.75;;
20794;SDS011;28087;-33.874;151.240;2022-10-16T14:56:30;18.02;;;2.80;;
20794;SDS011;28087;-33.874;151.240;2022-10-16T14:59:08;13.10;;;2.22;;
20794;SDS011;28087;-33.874;151.240;2022-10-16T15:01:46;12.63;;;2.40;;
20794;SDS011;28087;-33.874;151.240;2022-10-16T15:04:22;11.73;;;1.98;;
20794;SDS011;28087;-33.874;151.240;2022-10-16T15:06:59;9.40;;;2.05;;
20794;SDS011;28087;-33.874;151.240;2022-10-16T15:09:34;15.98;;;2.03;;
20794;SDS011;28087;-33.874;151.240;2022-10-16T15:12:12;8.95;;;1.77;;
20794;SDS011;28087;-33.874;151.240;2022-10-16T15:14:48;12.60;;;1.75;;
20794;SDS011;28087;-33.874;151.240;2022-10-16T15:17:23;12.77;;;2.30;;
20794;SDS011;28087;-33.874;151.240;2022-10-16T15:19:59;12.80;;;1.90;;